Sarasota Bradenton International Airport
KSRQ : now visible

Airfield :











YOU CAN JOIN US ON...

 
LOGIN :

Register | Disclaimer

   EN    FR    IT 

 









Legend :    VFR   Marginal VFR   IFR   Intensive IFR   Very Intensive IFR
Visi :
Ceiling :
>= 8 km
>= 3000ft
5 to 8 km
1000 to 3000 ft
1500m to 5 km
500 to 1000 ft
800 to 1500m
200 to 500 ft
< 800m
< 200 ft
Symbols :   Thunderstorms  Fog  Heavy snow  Heavy precipitations  Wind > 20 kt






- Airport Elevation : 30 ft
- IATA code : SRQ


KSRQ - Sarasota Bradenton International

CURRENT METAR :
  • 200853Z AUTO 06005KT 10SM OVC080 21/19 A2989 RMK AO2 SLP122 T02110194 56009

EXPIRED METARs :
  • 200753Z AUTO 03004KT 10SM BKN080 BKN100 OVC120 21/20 A2991 RMK AO2 SLP126 T02110200
  • 200653Z AUTO 03003KT 10SM SCT043 BKN090 BKN110 21/19 A2991 RMK AO2 SLP126 T02110194

TAF KSRQ
Valid from the 20 at 09:00 until the 21 at 06:00 UTC


200905Z 2009/2106 07004KT P6SM VCSH SCT008 OVC060
FM201000 VRB03KT P6SM VCTS SCT015CB OVC025
TEMPO 2012/2016 VRB10G20KT 3SM TSRA SCT008CB OVC015
FM201600 24009KT 5SM -RA VCTS SCT015CB OVC025
FM210200 31004KT P6SM VCSH OVC015
KZMA FIR / North America



MET'MAP, your aeronautical weather chart ! - Copyright ORBIFLY December 2007 - Disclaimer

ORBIFLY MET'MAP TEAM :

Programming & Development : Alexandra Zaïnal
Concept & original design : Baudouin d'Aumeries
Assistance for programming : Marc-Olivier Méhu
Technical & hardware support : Manuel Goepfert

Contact : metmap@orbifly.com




SOURCES & CREDITS :

   NOAA       Earth
Advisory